Time;durP1;ratioP1;P1;durP2;ratioP2;P2;SDS_P1;SDS_P2;PMS_P1;PMS_P2;Temp;Humidity;BMP_temperature;BMP_pressure;BME280_temperature;BME280_humidity;BME280_pressure;Samples;Min_cycle;Max_cycle;Signal;HPM_P1;HPM_P2
2022/01/25 00:30:10;;;;;;;491.77;464.57;;;5.00;99.90;;;;;;4389293;32;20227;-62
2022/01/25 00:32:37;;;;;;;497.07;469.30;;;5.00;99.90;;;;;;4389726;32;20160;-65
2022/01/25 00:35:05;;;;;;;507.90;479.10;;;4.90;99.90;;;;;;4385227;32;20263;-63
2022/01/25 00:37:33;;;;;;;520.37;490.87;;;5.00;99.90;;;;;;4386837;32;20183;-62
2022/01/25 00:40:00;;;;;;;534.37;504.53;;;5.00;99.90;;;;;;4388955;32;20174;-62
2022/01/25 00:42:27;;;;;;;523.03;493.63;;;4.90;99.90;;;;;;4389804;32;20212;-63
2022/01/25 00:44:55;;;;;;;536.27;506.13;;;4.90;99.90;;;;;;4383120;32;20219;-63
2022/01/25 00:47:21;;;;;;;517.57;489.17;;;4.90;99.90;;;;;;4383004;32;20159;-62
2022/01/25 00:49:52;;;;;;;500.27;471.93;;;5.00;99.90;;;;;;4374121;32;20595;-63
2022/01/25 00:53:53;;;;;;;541.33;510.90;;;4.90;99.90;;;;;;4373746;32;20175;-63
2022/01/25 00:55:18;;;;;;;496.73;469.50;;;4.90;99.90;;;;;;4376910;32;20261;-62
2022/01/25 00:57:47;;;;;;;505.50;477.33;;;4.90;99.90;;;;;;4396714;32;20281;-62
2022/01/25 01:00:16;;;;;;;520.63;491.93;;;4.80;99.90;;;;;;4406084;32;20180;-63
2022/01/25 01:02:43;;;;;;;515.37;486.90;;;4.90;99.90;;;;;;4410157;32;20179;-62
2022/01/25 01:05:11;;;;;;;514.73;485.63;;;4.80;99.90;;;;;;4415596;32;20174;-65
2022/01/25 01:07:40;;;;;;;507.50;479.30;;;4.90;99.90;;;;;;4417676;32;20167;-63
2022/01/25 01:10:08;;;;;;;517.17;488.03;;;4.90;99.90;;;;;;4424727;32;20148;-62
2022/01/25 01:15:31;;;;;;;488.47;461.20;;;4.80;99.90;;;;;;4418371;32;20171;-65
2022/01/25 01:29:19;;;;;;;469.43;443.50;;;4.80;99.90;;;;;;4424361;32;20513;-65
2022/01/25 01:31:57;;;;;;;476.50;450.17;;;4.80;99.90;;;;;;4411308;32;20236;-63
2022/01/25 01:43:11;;;;;;;479.83;453.30;;;4.80;99.90;;;;;;4393066;32;20557;-62
2022/01/25 01:45:50;;;;;;;511.07;482.87;;;4.80;99.90;;;;;;4390050;32;20156;-64
2022/01/25 01:48:27;;;;;;;486.40;459.50;;;4.70;99.90;;;;;;4374474;32;20152;-64
2022/01/25 01:50:58;;;;;;;495.63;468.00;;;4.80;99.90;;;;;;4374676;32;20164;-64
2022/01/25 01:53:25;;;;;;;498.37;470.53;;;4.80;99.90;;;;;;4382361;32;20256;-62
2022/01/25 01:55:52;;;;;;;509.67;481.17;;;4.80;99.90;;;;;;4405387;32;20560;-63
2022/01/25 01:58:19;;;;;;;527.83;498.40;;;4.80;99.90;;;;;;4403685;32;20227;-63
2022/01/25 02:00:49;;;;;;;515.60;487.13;;;4.80;99.90;;;;;;4404956;32;20206;-64
2022/01/25 02:03:17;;;;;;;507.30;478.87;;;4.90;99.90;;;;;;4404705;32;20235;-65
2022/01/25 02:05:44;;;;;;;514.77;485.80;;;4.80;99.90;;;;;;4389923;32;20217;-63
2022/01/25 02:08:11;;;;;;;517.43;488.87;;;4.90;99.90;;;;;;4390409;32;20517;-64
2022/01/25 02:10:39;;;;;;;501.10;473.40;;;4.80;99.90;;;;;;4391237;32;20516;-64
2022/01/25 02:13:06;;;;;;;486.63;459.37;;;4.90;99.90;;;;;;4389456;32;20160;-62
2022/01/25 02:15:33;;;;;;;524.30;494.90;;;4.90;99.90;;;;;;4395599;32;20191;-65
2022/01/25 02:23:31;;;;;;;497.43;469.73;;;4.90;99.90;;;;;;4421189;32;20246;-65
2022/01/25 02:26:00;;;;;;;502.53;475.03;;;4.90;99.90;;;;;;4434031;32;20184;-64
2022/01/25 02:28:29;;;;;;;503.30;475.10;;;4.90;99.90;;;;;;4437353;32;20157;-63
2022/01/25 02:30:57;;;;;;;509.17;480.70;;;4.90;99.90;;;;;;4437131;32;20452;-65
2022/01/25 02:33:25;;;;;;;513.47;484.37;;;4.80;99.90;;;;;;4434567;32;20211;-63
2022/01/25 02:35:54;;;;;;;499.87;471.67;;;4.90;99.90;;;;;;4417286;32;20182;-64
2022/01/25 02:38:22;;;;;;;498.83;471.07;;;4.80;99.90;;;;;;4416725;32;20170;-64
2022/01/25 02:40:49;;;;;;;494.83;467.33;;;4.90;99.90;;;;;;4422959;32;20181;-62
2022/01/25 02:43:19;;;;;;;520.23;491.00;;;4.90;99.90;;;;;;4421499;32;20204;-64
2022/01/25 02:45:51;;;;;;;496.87;468.97;;;4.80;99.90;;;;;;4431068;32;20163;-64
2022/01/25 02:48:30;;;;;;;503.73;475.43;;;4.80;99.90;;;;;;4436526;32;20185;-64
2022/01/25 02:51:02;;;;;;;470.50;444.20;;;4.80;99.90;;;;;;4436779;32;20192;-63
2022/01/25 02:53:29;;;;;;;484.37;457.67;;;4.80;99.90;;;;;;4437130;32;20162;-63
2022/01/25 02:55:57;;;;;;;475.23;449.37;;;4.80;99.90;;;;;;4430772;32;20464;-64
2022/01/25 02:58:24;;;;;;;479.10;452.50;;;4.80;99.90;;;;;;4421813;32;20144;-63
2022/01/25 03:00:50;;;;;;;479.73;453.00;;;4.70;99.90;;;;;;4421369;32;20206;-65
2022/01/25 03:03:17;;;;;;;478.63;451.90;;;4.70;99.90;;;;;;4421401;32;20216;-63
2022/01/25 03:05:45;;;;;;;514.03;484.43;;;4.70;99.90;;;;;;4422538;32;20195;-62
2022/01/25 03:08:14;;;;;;;519.13;489.80;;;4.60;99.90;;;;;;4421095;32;20152;-63
2022/01/25 03:10:46;;;;;;;505.63;476.97;;;4.70;99.90;;;;;;4421169;32;20158;-65
2022/01/25 03:13:18;;;;;;;481.90;455.17;;;4.70;99.90;;;;;;4420711;32;20163;-65
2022/01/25 03:16:01;;;;;;;489.70;462.70;;;4.70;99.90;;;;;;4424898;32;20171;-63
2022/01/25 03:18:45;;;;;;;466.00;439.70;;;4.70;99.90;;;;;;4420473;32;20171;-64
2022/01/25 03:21:32;;;;;;;483.07;456.70;;;4.80;99.90;;;;;;4421452;32;20135;-62
2022/01/25 03:24:01;;;;;;;478.13;451.27;;;4.70;99.90;;;;;;4422050;32;20628;-63
2022/01/25 03:26:28;;;;;;;477.57;451.40;;;4.70;99.90;;;;;;4427672;32;20189;-64
2022/01/25 03:28:57;;;;;;;494.70;467.37;;;4.70;99.90;;;;;;4420805;32;20159;-62
2022/01/25 03:31:25;;;;;;;467.30;441.17;;;4.70;99.90;;;;;;4421085;32;20192;-63
2022/01/25 03:33:52;;;;;;;465.70;440.07;;;4.70;99.90;;;;;;4421008;32;20518;-65
2022/01/25 03:36:19;;;;;;;473.07;446.50;;;4.70;99.90;;;;;;4425886;32;20208;-63
2022/01/25 03:38:47;;;;;;;459.00;433.47;;;4.70;99.90;;;;;;4423575;32;20155;-62
2022/01/25 03:41:16;;;;;;;457.53;432.33;;;4.70;99.90;;;;;;4420768;32;20146;-62
2022/01/25 03:43:44;;;;;;;483.03;456.20;;;4.70;99.90;;;;;;4420962;32;20167;-63
2022/01/25 03:46:18;;;;;;;459.43;434.17;;;4.70;99.90;;;;;;4421185;32;20154;-63
2022/01/25 03:51:30;;;;;;;487.43;460.17;;;4.70;99.90;;;;;;4406255;32;20506;-63
2022/01/25 03:53:57;;;;;;;490.57;462.50;;;4.60;99.90;;;;;;4405531;32;20192;-64
2022/01/25 03:56:25;;;;;;;486.10;458.93;;;4.70;99.90;;;;;;4412429;32;20247;-64
2022/01/25 03:58:52;;;;;;;492.97;465.70;;;4.70;99.90;;;;;;4420066;32;20186;-61
2022/01/25 04:01:20;;;;;;;480.47;453.37;;;4.70;99.90;;;;;;4420472;32;20187;-64
2022/01/25 04:03:56;;;;;;;476.00;449.43;;;4.80;99.90;;;;;;4420680;32;20197;-64
2022/01/25 04:06:25;;;;;;;477.93;451.43;;;4.70;99.90;;;;;;4422019;32;20191;-65
2022/01/25 04:08:52;;;;;;;479.97;452.97;;;4.70;99.90;;;;;;4426391;32;20152;-62
2022/01/25 04:11:19;;;;;;;481.03;454.33;;;4.80;99.90;;;;;;4421034;32;20563;-63
2022/01/25 04:13:48;;;;;;;471.23;445.13;;;4.80;99.90;;;;;;4420390;32;20198;-63
2022/01/25 04:16:20;;;;;;;470.43;444.37;;;4.80;99.90;;;;;;4420562;32;20225;-65
2022/01/25 04:18:56;;;;;;;481.83;455.00;;;4.80;99.90;;;;;;4428574;32;20170;-64
2022/01/25 04:21:41;;;;;;;466.90;440.70;;;4.90;99.90;;;;;;4420580;32;20200;-64
2022/01/25 04:26:54;;;;;;;447.07;422.60;;;4.80;99.90;;;;;;4411392;32;20197;-62
2022/01/25 04:29:22;;;;;;;461.27;435.20;;;4.80;99.90;;;;;;4433848;32;20156;-64
2022/01/25 04:31:49;;;;;;;472.90;446.40;;;4.80;99.90;;;;;;4424026;32;20163;-61
2022/01/25 04:34:37;;;;;;;480.20;453.50;;;4.90;99.90;;;;;;4422888;32;20471;-62
2022/01/25 04:53:44;;;;;;;444.07;419.07;;;4.90;99.90;;;;;;4346611;33;20510;-64
2022/01/25 04:56:17;;;;;;;484.60;457.77;;;4.90;99.90;;;;;;4345805;33;20161;-61
2022/01/25 04:58:51;;;;;;;459.43;433.70;;;4.90;99.90;;;;;;4344424;33;20631;-63
2022/01/25 05:01:19;;;;;;;478.13;451.03;;;4.90;99.90;;;;;;4345484;33;20221;-64
2022/01/25 05:03:59;;;;;;;470.13;443.73;;;4.90;99.90;;;;;;4345686;33;20229;-64
2022/01/25 05:06:27;;;;;;;476.53;450.17;;;4.90;99.90;;;;;;4345733;33;20208;-62
2022/01/25 05:08:57;;;;;;;470.47;443.90;;;4.80;99.90;;;;;;4335355;33;20177;-63
2022/01/25 05:11:30;;;;;;;472.90;446.70;;;4.80;99.90;;;;;;4331335;33;20282;-63
2022/01/25 05:14:12;;;;;;;463.50;438.00;;;4.80;99.90;;;;;;4344416;33;20161;-61
2022/01/25 05:16:49;;;;;;;462.17;435.83;;;4.80;99.90;;;;;;4346113;33;20169;-63
2022/01/25 05:22:03;;;;;;;456.93;431.27;;;4.90;99.90;;;;;;4346439;33;20197;-64
2022/01/25 05:22:20;;;;;;;446.17;421.23;;;4.80;99.90;;;;;;4362296;32;20235;-62
2022/01/25 05:24:48;;;;;;;481.30;454.17;;;4.80;99.90;;;;;;4374992;32;20200;-61
2022/01/25 05:27:18;;;;;;;471.10;444.70;;;4.80;99.90;;;;;;4375147;32;20220;-63
2022/01/25 05:29:45;;;;;;;454.43;429.30;;;4.80;99.90;;;;;;4378891;32;20230;-64
2022/01/25 05:32:14;;;;;;;461.20;435.00;;;4.80;99.90;;;;;;4407441;32;20182;-61
2022/01/25 05:34:41;;;;;;;475.27;448.23;;;4.80;99.90;;;;;;4420236;32;20193;-61
2022/01/25 05:37:08;;;;;;;460.03;434.23;;;4.80;99.90;;;;;;4422701;32;20198;-63
2022/01/25 05:39:37;;;;;;;463.40;437.47;;;4.80;99.90;;;;;;4423454;32;20155;-64
2022/01/25 05:45:18;;;;;;;447.37;422.23;;;4.80;99.90;;;;;;4373096;32;20597;-63
2022/01/25 05:47:46;;;;;;;448.60;423.60;;;4.80;99.90;;;;;;4375169;32;20168;-64
2022/01/25 05:50:14;;;;;;;464.07;437.87;;;4.80;99.90;;;;;;4373355;32;20212;-63
2022/01/25 05:52:41;;;;;;;474.43;447.97;;;4.70;99.90;;;;;;4375872;32;20212;-64
2022/01/25 05:55:09;;;;;;;459.03;432.73;;;4.70;99.90;;;;;;4373523;32;20644;-63
2022/01/25 05:57:36;;;;;;;461.83;434.57;;;4.70;99.90;;;;;;4374652;32;20212;-63
2022/01/25 06:00:05;;;;;;;453.47;426.90;;;4.70;99.90;;;;;;4374609;32;20169;-62
2022/01/25 06:02:33;;;;;;;455.30;428.20;;;4.80;99.90;;;;;;4375369;32;20212;-63
2022/01/25 06:05:04;;;;;;;465.50;438.70;;;4.70;99.90;;;;;;4372862;32;20315;-63
2022/01/25 06:07:30;;;;;;;453.43;427.13;;;4.70;99.90;;;;;;4373574;32;20239;-63
2022/01/25 06:09:57;;;;;;;478.33;449.83;;;4.70;99.90;;;;;;4373441;32;20516;-62
2022/01/25 06:12:24;;;;;;;472.60;445.37;;;4.70;99.90;;;;;;4370883;32;20161;-61
2022/01/25 06:14:51;;;;;;;472.33;444.53;;;4.70;99.90;;;;;;4367318;32;20617;-62
2022/01/25 06:17:18;;;;;;;467.77;440.23;;;4.70;99.90;;;;;;4364184;32;20224;-62
2022/01/25 06:19:45;;;;;;;482.13;454.87;;;4.70;99.90;;;;;;4403563;32;20209;-62
2022/01/25 06:22:13;;;;;;;482.53;454.53;;;4.80;99.90;;;;;;4420706;32;20502;-62
2022/01/25 06:24:40;;;;;;;486.07;457.60;;;4.80;99.90;;;;;;4421416;32;20172;-64
2022/01/25 06:27:07;;;;;;;475.03;447.37;;;4.80;99.90;;;;;;4421010;32;20650;-63
2022/01/25 06:29:34;;;;;;;465.43;438.93;;;4.80;99.90;;;;;;4423163;32;20664;-62
2022/01/25 06:32:01;;;;;;;485.87;457.73;;;4.80;99.90;;;;;;4419827;32;20223;-62
2022/01/25 06:34:28;;;;;;;505.20;475.53;;;4.80;99.90;;;;;;4420664;32;20467;-62
2022/01/25 06:36:55;;;;;;;469.23;441.87;;;4.90;99.90;;;;;;4420742;32;20225;-62
2022/01/25 06:39:26;;;;;;;474.77;446.27;;;4.80;99.90;;;;;;4420052;32;20591;-62
2022/01/25 06:41:53;;;;;;;455.57;428.23;;;4.80;99.90;;;;;;4423312;32;20563;-62
2022/01/25 06:44:19;;;;;;;462.37;434.70;;;4.80;99.90;;;;;;4419971;32;20169;-64
2022/01/25 06:46:48;;;;;;;448.70;422.23;;;4.90;99.90;;;;;;4420726;32;20255;-63
2022/01/25 06:49:16;;;;;;;457.60;430.87;;;5.00;99.90;;;;;;4420023;32;20618;-61
2022/01/25 06:51:43;;;;;;;459.53;432.50;;;4.80;99.90;;;;;;4420814;32;20212;-61
2022/01/25 06:54:10;;;;;;;482.17;454.10;;;4.70;99.90;;;;;;4420830;32;20618;-62
2022/01/25 06:56:38;;;;;;;489.53;460.83;;;4.80;99.90;;;;;;4421196;32;20247;-64
2022/01/25 06:59:05;;;;;;;461.23;434.30;;;4.80;99.90;;;;;;4421715;32;20156;-63
2022/01/25 07:01:32;;;;;;;472.70;444.77;;;4.80;99.90;;;;;;4419519;32;20250;-62
2022/01/25 07:03:59;;;;;;;476.70;449.07;;;4.80;99.90;;;;;;4419806;32;20215;-62
2022/01/25 07:06:26;;;;;;;475.03;446.00;;;4.80;99.90;;;;;;4419824;32;20526;-62
2022/01/25 07:08:54;;;;;;;470.03;441.77;;;4.80;99.90;;;;;;4420517;32;20211;-64
2022/01/25 07:11:21;;;;;;;483.97;455.53;;;4.80;99.90;;;;;;4424345;32;20215;-62
2022/01/25 07:13:49;;;;;;;490.80;461.80;;;4.70;99.90;;;;;;4420434;32;20174;-62
2022/01/25 07:16:17;;;;;;;456.53;428.67;;;4.80;99.90;;;;;;4420746;32;20241;-62
2022/01/25 07:18:43;;;;;;;461.57;434.00;;;4.80;99.90;;;;;;4416332;32;20163;-62
2022/01/25 07:21:10;;;;;;;463.57;436.03;;;4.80;99.90;;;;;;4418317;32;20195;-64
2022/01/25 07:23:37;;;;;;;430.67;404.33;;;4.80;99.90;;;;;;4419383;32;20211;-62
2022/01/25 07:26:04;;;;;;;440.23;412.83;;;4.70;99.90;;;;;;4422738;32;20166;-63
2022/01/25 07:28:33;;;;;;;476.13;446.83;;;4.70;99.90;;;;;;4420019;32;20575;-63
2022/01/25 07:31:01;;;;;;;463.00;434.40;;;4.70;99.90;;;;;;4421182;32;20171;-62
2022/01/25 07:33:28;;;;;;;458.37;430.50;;;4.70;99.90;;;;;;4416817;32;20206;-64
2022/01/25 07:35:58;;;;;;;457.93;430.07;;;4.70;99.90;;;;;;4414418;32;20584;-62
2022/01/25 07:38:25;;;;;;;456.87;429.20;;;4.70;99.90;;;;;;4415289;32;20182;-62
2022/01/25 07:40:58;;;;;;;458.67;430.40;;;4.70;99.90;;;;;;4418377;32;20194;-62
2022/01/25 07:43:27;;;;;;;459.67;431.93;;;4.70;99.90;;;;;;4419587;32;20147;-64
2022/01/25 07:45:59;;;;;;;459.47;431.33;;;4.80;99.90;;;;;;4420314;32;20589;-62
2022/01/25 07:48:30;;;;;;;466.07;438.37;;;4.80;99.90;;;;;;4420709;32;20173;-64
2022/01/25 07:51:00;;;;;;;457.00;428.73;;;4.80;99.90;;;;;;4421684;32;20185;-62
2022/01/25 07:53:28;;;;;;;450.97;423.93;;;4.80;99.90;;;;;;4432605;32;20209;-62
2022/01/25 07:55:55;;;;;;;482.97;454.07;;;4.80;99.90;;;;;;4435655;32;20147;-62
2022/01/25 07:58:22;;;;;;;468.87;440.93;;;4.80;99.90;;;;;;4435487;32;20158;-62
2022/01/25 08:00:49;;;;;;;472.33;443.57;;;4.80;99.90;;;;;;4435813;32;20190;-62
2022/01/25 08:03:19;;;;;;;454.57;426.87;;;4.80;99.90;;;;;;4435911;32;20155;-62
2022/01/25 08:05:50;;;;;;;478.37;450.10;;;4.90;99.90;;;;;;4438714;32;20175;-62
2022/01/25 08:08:17;;;;;;;471.87;443.47;;;4.80;99.90;;;;;;4440035;32;20220;-62
2022/01/25 08:10:44;;;;;;;473.93;444.80;;;4.80;99.90;;;;;;4439914;32;20174;-62
2022/01/25 08:13:14;;;;;;;455.50;428.07;;;4.80;99.90;;;;;;4430707;32;20173;-64
2022/01/25 08:15:41;;;;;;;451.50;424.10;;;4.80;99.90;;;;;;4423844;32;20459;-62
2022/01/25 08:18:08;;;;;;;463.77;435.57;;;4.80;99.90;;;;;;4423561;32;20174;-62
2022/01/25 08:20:36;;;;;;;463.87;435.80;;;4.80;99.90;;;;;;4423583;32;20188;-61
2022/01/25 08:23:05;;;;;;;497.90;466.90;;;4.80;99.90;;;;;;4430027;32;20155;-62
2022/01/25 08:25:32;;;;;;;500.13;470.07;;;4.80;99.90;;;;;;4440527;32;20205;-63
2022/01/25 08:27:59;;;;;;;488.10;458.27;;;4.80;99.90;;;;;;4440521;32;20173;-62
2022/01/25 08:30:26;;;;;;;491.47;461.53;;;4.90;99.90;;;;;;4439129;32;20151;-63
2022/01/25 08:32:53;;;;;;;494.77;464.63;;;5.00;99.90;;;;;;4435100;32;20167;-63
2022/01/25 08:35:20;;;;;;;462.00;433.80;;;4.90;99.90;;;;;;4423415;32;20151;-61
2022/01/25 08:37:47;;;;;;;478.03;449.13;;;4.90;99.90;;;;;;4423333;32;20220;-64
2022/01/25 08:40:15;;;;;;;475.17;446.27;;;5.00;99.90;;;;;;4423201;32;20156;-64
2022/01/25 08:42:42;;;;;;;492.73;463.40;;;5.00;99.90;;;;;;4423381;32;20244;-62
2022/01/25 08:45:10;;;;;;;488.03;458.37;;;4.90;99.90;;;;;;4437534;32;20548;-64
2022/01/25 08:47:38;;;;;;;483.83;454.53;;;4.90;99.90;;;;;;4438388;32;20208;-60
2022/01/25 08:50:08;;;;;;;463.57;435.23;;;4.90;99.90;;;;;;4438516;32;20143;-62
2022/01/25 08:52:37;;;;;;;503.50;472.17;;;5.00;99.90;;;;;;4438479;32;20161;-65
2022/01/25 08:55:05;;;;;;;478.70;448.97;;;5.00;99.90;;;;;;4437324;32;20155;-62
2022/01/25 08:57:35;;;;;;;474.03;445.30;;;5.00;99.90;;;;;;4438412;32;20154;-65
2022/01/25 09:00:07;;;;;;;473.57;445.30;;;5.10;99.90;;;;;;4439294;32;20552;-62
2022/01/25 09:02:35;;;;;;;512.73;481.60;;;5.10;99.90;;;;;;4438432;32;20147;-63
2022/01/25 09:05:02;;;;;;;437.80;411.27;;;5.30;99.90;;;;;;4425833;32;20583;-62
2022/01/25 09:07:28;;;;;;;464.70;436.37;;;5.20;99.90;;;;;;4422858;32;20166;-62
2022/01/25 09:09:55;;;;;;;480.03;449.80;;;5.20;99.90;;;;;;4423192;32;20195;-61
2022/01/25 09:12:23;;;;;;;444.43;417.43;;;5.20;99.90;;;;;;4422381;32;20148;-62
2022/01/25 09:14:53;;;;;;;448.93;421.83;;;5.20;99.90;;;;;;4430376;32;20139;-61
2022/01/25 09:17:19;;;;;;;443.77;416.77;;;5.20;99.90;;;;;;4439092;32;20204;-61
2022/01/25 09:19:46;;;;;;;458.60;430.27;;;5.20;99.90;;;;;;4438109;32;20139;-61
2022/01/25 09:22:14;;;;;;;459.03;431.13;;;5.10;99.90;;;;;;4438212;32;20147;-61
2022/01/25 09:24:41;;;;;;;485.27;455.70;;;5.20;99.90;;;;;;4430553;32;20156;-62
2022/01/25 09:27:08;;;;;;;462.13;434.50;;;5.20;99.90;;;;;;4423257;32;20162;-61
2022/01/25 09:29:36;;;;;;;493.87;464.13;;;5.20;99.90;;;;;;4423164;32;20143;-61
2022/01/25 09:32:05;;;;;;;499.57;468.93;;;5.20;99.90;;;;;;4422956;32;20143;-62
2022/01/25 09:34:32;;;;;;;462.73;434.37;;;5.30;99.90;;;;;;4425533;32;20564;-62
2022/01/25 09:37:01;;;;;;;440.13;413.53;;;5.30;99.90;;;;;;4437822;32;20720;-61
2022/01/25 09:39:30;;;;;;;452.10;424.57;;;5.30;99.90;;;;;;4437796;32;20158;-61
2022/01/25 09:42:03;;;;;;;432.37;406.57;;;5.30;99.90;;;;;;4439015;32;20147;-61
2022/01/25 09:44:30;;;;;;;438.27;412.17;;;5.30;99.90;;;;;;4435244;32;20193;-62
2022/01/25 09:47:00;;;;;;;433.40;407.10;;;5.30;99.90;;;;;;4422331;32;20644;-61
2022/01/25 09:49:31;;;;;;;424.07;398.07;;;5.30;99.90;;;;;;4422779;32;20147;-61
2022/01/25 09:52:01;;;;;;;462.37;434.80;;;5.10;99.90;;;;;;4423180;32;20195;-62
2022/01/25 09:54:28;;;;;;;482.83;453.43;;;5.20;99.90;;;;;;4422118;32;20226;-62
2022/01/25 09:56:55;;;;;;;444.63;417.33;;;5.20;99.90;;;;;;4422981;32;20148;-62
2022/01/25 09:59:23;;;;;;;466.73;438.73;;;5.10;99.90;;;;;;4422132;32;20148;-62
2022/01/25 10:01:50;;;;;;;484.77;454.97;;;5.20;99.90;;;;;;4423098;32;20194;-62
2022/01/25 10:04:31;;;;;;;471.13;443.10;;;5.30;99.90;;;;;;4417050;32;20190;-62
2022/01/25 10:07:01;;;;;;;469.77;441.30;;;5.30;99.90;;;;;;4413045;32;20729;-62
2022/01/25 10:09:31;;;;;;;466.43;438.43;;;5.30;99.90;;;;;;4406912;32;20186;-62
2022/01/25 10:12:16;;;;;;;449.67;422.87;;;5.40;99.90;;;;;;4407229;32;20235;-62
2022/01/25 10:14:54;;;;;;;456.40;428.43;;;5.40;99.90;;;;;;4406876;32;20567;-62
2022/01/25 10:17:30;;;;;;;453.73;426.50;;;5.50;99.90;;;;;;4406760;32;20165;-61
2022/01/25 10:19:58;;;;;;;410.60;386.37;;;5.50;99.90;;;;;;4407263;32;20162;-61
2022/01/25 10:22:25;;;;;;;421.87;396.97;;;5.50;99.90;;;;;;4406988;32;20143;-60
2022/01/25 10:24:52;;;;;;;458.87;431.13;;;5.40;99.90;;;;;;4405615;32;20166;-61
2022/01/25 10:27:57;;;;;;;455.77;427.73;;;5.40;99.90;;;;;;4434539;32;20147;-61
2022/01/25 10:30:11;;;;;;;421.60;396.27;;;5.40;99.90;;;;;;4436856;32;20202;-61
2022/01/25 10:32:39;;;;;;;441.80;414.63;;;5.50;99.90;;;;;;4437088;32;20212;-61
2022/01/25 10:35:16;;;;;;;461.73;434.20;;;5.40;99.90;;;;;;4436876;32;20479;-62
2022/01/25 10:37:43;;;;;;;454.20;427.07;;;5.50;99.90;;;;;;4423244;32;20563;-61
2022/01/25 10:40:11;;;;;;;460.77;432.77;;;5.50;99.90;;;;;;4421482;32;20148;-62
2022/01/25 10:42:38;;;;;;;457.30;429.20;;;5.50;99.90;;;;;;4421356;32;20174;-62
2022/01/25 10:45:09;;;;;;;442.17;414.53;;;5.50;99.90;;;;;;4421706;32;20171;-62
2022/01/25 10:47:46;;;;;;;434.73;408.40;;;5.40;99.90;;;;;;4432372;32;20194;-62
2022/01/25 10:50:21;;;;;;;403.70;379.90;;;5.40;99.90;;;;;;4437986;32;20143;-62
2022/01/25 10:53:05;;;;;;;408.40;383.70;;;5.30;99.90;;;;;;4436424;32;20208;-62
2022/01/25 10:55:37;;;;;;;410.27;385.27;;;5.20;99.90;;;;;;4438130;32;20220;-62
2022/01/25 10:58:05;;;;;;;436.00;409.30;;;5.00;99.90;;;;;;4434277;32;20592;-62
2022/01/25 11:00:34;;;;;;;473.07;444.10;;;5.00;99.90;;;;;;4432389;32;20205;-62
2022/01/25 11:03:03;;;;;;;485.03;455.13;;;5.10;99.90;;;;;;4421128;32;20154;-61
2022/01/25 11:05:39;;;;;;;449.43;421.93;;;5.10;99.90;;;;;;4421077;32;20187;-62
2022/01/25 11:08:16;;;;;;;451.33;424.57;;;5.30;99.90;;;;;;4432260;32;20171;-62
2022/01/25 11:10:49;;;;;;;460.53;432.53;;;5.30;99.90;;;;;;4436782;32;20170;-61
2022/01/25 11:13:34;;;;;;;444.40;416.47;;;5.40;99.90;;;;;;4436447;32;20199;-62
2022/01/25 11:16:03;;;;;;;442.40;416.03;;;5.40;99.90;;;;;;4436358;32;20161;-63
2022/01/25 11:18:31;;;;;;;445.53;418.47;;;5.40;99.90;;;;;;4422487;32;20560;-62
2022/01/25 11:21:03;;;;;;;457.13;429.80;;;5.40;99.90;;;;;;4424110;32;20167;-60
2022/01/25 11:23:33;;;;;;;474.73;446.93;;;5.50;99.90;;;;;;4407339;32;20279;-63
2022/01/25 11:26:01;;;;;;;477.57;448.27;;;5.50;99.90;;;;;;4406105;32;20151;-62
2022/01/25 11:28:31;;;;;;;483.87;454.87;;;5.50;99.90;;;;;;4418408;32;20179;-63
2022/01/25 11:31:00;;;;;;;448.93;422.00;;;5.60;99.90;;;;;;4419995;32;20163;-63
2022/01/25 11:33:28;;;;;;;475.30;446.93;;;5.70;99.90;;;;;;4412876;32;20206;-62
2022/01/25 11:35:55;;;;;;;446.20;419.27;;;5.70;99.90;;;;;;4419769;32;20207;-62
2022/01/25 11:38:33;;;;;;;429.10;402.57;;;5.80;99.90;;;;;;4418123;32;20147;-62
2022/01/25 11:41:13;;;;;;;448.40;421.40;;;5.70;99.90;;;;;;4414651;32;20170;-63
2022/01/25 11:43:44;;;;;;;464.50;435.95;;;5.70;99.90;;;;;;4397616;32;3137451;-62
2022/01/25 11:46:12;;;;;;;452.17;425.07;;;5.70;99.90;;;;;;4398835;32;20600;-63
2022/01/25 11:48:44;;;;;;;464.20;436.27;;;5.70;99.90;;;;;;4393611;32;20184;-62
2022/01/25 11:54:04;;;;;;;440.57;413.80;;;5.60;99.90;;;;;;4393367;32;20270;-62
2022/01/25 11:56:33;;;;;;;461.40;433.43;;;5.70;99.90;;;;;;4405336;32;20590;-62
2022/01/25 11:59:01;;;;;;;469.47;441.10;;;5.60;99.90;;;;;;4403117;32;20228;-62
2022/01/25 12:01:29;;;;;;;478.77;450.07;;;5.60;99.90;;;;;;4404582;32;20219;-63
2022/01/25 12:03:59;;;;;;;435.13;409.40;;;5.60;99.90;;;;;;4404566;32;20171;-63
2022/01/25 12:06:32;;;;;;;403.00;378.43;;;5.60;99.90;;;;;;4403410;32;20575;-63
2022/01/25 12:09:10;;;;;;;430.23;404.33;;;5.50;99.90;;;;;;4403192;32;20602;-62
2022/01/25 12:11:44;;;;;;;402.20;378.43;;;5.40;99.90;;;;;;4404753;32;20570;-62
2022/01/25 12:14:33;;;;;;;465.33;436.93;;;5.40;99.90;;;;;;4404881;32;20199;-62
2022/01/25 12:17:13;;;;;;;462.83;434.50;;;5.40;99.90;;;;;;4402697;32;20148;-62
2022/01/25 12:19:44;;;;;;;452.90;424.87;;;5.40;99.90;;;;;;4402691;32;20170;-63
2022/01/25 12:22:35;;;;;;;458.43;430.83;;;5.40;99.90;;;;;;4405121;32;20155;-64
2022/01/25 12:25:10;;;;;;;471.57;443.33;;;5.40;99.90;;;;;;4341460;33;20157;-61
2022/01/25 12:27:49;;;;;;;490.10;460.70;;;5.50;99.90;;;;;;4342667;33;20496;-61
2022/01/25 12:30:20;;;;;;;466.77;438.67;;;5.60;99.90;;;;;;4337973;33;20219;-60
2022/01/25 12:32:55;;;;;;;433.80;407.20;;;5.60;99.90;;;;;;4342593;33;20145;-62
2022/01/25 12:35:34;;;;;;;469.20;440.60;;;5.40;99.90;;;;;;4343656;33;20593;-62
2022/01/25 12:38:07;;;;;;;450.43;423.30;;;5.40;99.90;;;;;;4344095;33;20175;-63
2022/01/25 12:40:44;;;;;;;485.90;456.73;;;5.40;99.90;;;;;;4336174;33;20191;-65
2022/01/25 12:43:16;;;;;;;465.60;437.73;;;5.30;99.90;;;;;;4341097;33;20181;-61
2022/01/25 12:45:48;;;;;;;461.50;433.33;;;5.40;99.90;;;;;;4343001;33;20189;-61
2022/01/25 12:48:16;;;;;;;455.87;428.37;;;5.40;99.90;;;;;;4344587;33;20219;-62
2022/01/25 12:50:49;;;;;;;462.80;434.97;;;5.30;99.90;;;;;;4344371;33;20161;-62
2022/01/25 12:53:19;;;;;;;496.23;466.40;;;5.10;99.90;;;;;;4346660;33;20157;-62
2022/01/25 12:55:50;;;;;;;491.63;461.57;;;5.10;99.90;;;;;;4346973;33;20199;-62
2022/01/25 12:58:19;;;;;;;511.50;480.83;;;5.10;99.90;;;;;;4345265;33;20171;-63
2022/01/25 13:00:48;;;;;;;498.77;468.20;;;5.20;99.90;;;;;;4343618;33;20188;-64
2022/01/25 13:03:19;;;;;;;456.07;428.53;;;5.30;99.90;;;;;;4404252;32;20144;-62
2022/01/25 13:05:49;;;;;;;443.63;417.13;;;5.30;99.90;;;;;;4407031;32;20559;-63
2022/01/25 13:08:29;;;;;;;477.80;449.53;;;5.20;99.90;;;;;;4403716;32;20204;-63
2022/01/25 13:11:19;;;;;;;462.23;434.63;;;5.30;99.90;;;;;;4399203;32;20158;-64
2022/01/25 13:13:58;;;;;;;460.03;432.70;;;5.30;99.90;;;;;;4407082;32;20568;-62
2022/01/25 13:16:44;;;;;;;463.10;435.13;;;5.40;99.90;;;;;;4407284;32;20206;-62
2022/01/25 13:19:12;;;;;;;483.23;454.33;;;5.40;99.90;;;;;;4407503;32;20174;-63
2022/01/25 13:21:41;;;;;;;494.40;464.97;;;5.50;99.90;;;;;;4403672;32;20211;-64
2022/01/25 13:24:15;;;;;;;502.80;472.60;;;5.60;99.90;;;;;;4406029;32;20663;-63
2022/01/25 13:26:56;;;;;;;480.37;451.53;;;5.60;99.90;;;;;;4406266;32;20280;-63
2022/01/25 13:32:16;;;;;;;419.17;393.37;;;5.70;99.90;;;;;;4405499;32;20226;-64
2022/01/25 13:34:43;;;;;;;422.47;396.97;;;5.60;99.90;;;;;;4400771;32;20207;-63
2022/01/25 13:37:20;;;;;;;418.77;393.20;;;5.50;99.90;;;;;;4403552;32;21410;-64
2022/01/25 13:39:56;;;;;;;464.30;436.00;;;5.30;99.90;;;;;;4397675;32;20219;-62
2022/01/25 13:42:32;;;;;;;464.77;437.13;;;5.30;99.90;;;;;;4403145;32;20169;-62
2022/01/25 13:48:04;;;;;;;456.23;429.37;;;5.30;99.90;;;;;;4397457;32;20228;-62
2022/01/25 13:50:32;;;;;;;462.17;433.97;;;5.40;99.90;;;;;;4399734;32;20202;-64
2022/01/25 13:52:59;;;;;;;476.47;447.50;;;5.40;99.90;;;;;;4402642;32;20180;-61
2022/01/25 13:55:26;;;;;;;460.63;433.17;;;5.40;99.90;;;;;;4400465;32;20258;-64
2022/01/25 13:57:55;;;;;;;451.27;424.67;;;5.50;99.90;;;;;;4400816;32;20321;-63
2022/01/25 14:00:23;;;;;;;448.73;421.50;;;5.40;99.90;;;;;;4399681;32;20330;-62
2022/01/25 14:02:53;;;;;;;472.97;444.20;;;5.40;99.90;;;;;;4393315;32;20255;-62
2022/01/25 14:05:20;;;;;;;442.53;415.40;;;5.50;99.90;;;;;;4405865;32;20143;-62